sensor_id;sensor_type;location;lat;lon;timestamp;P1;durP1;ratioP1;P2;durP2;ratioP2
54171;SDS011;40076;52.354;4.970;2024-01-16T00:03:21;8.18;;;1.55;;
54171;SDS011;40076;52.354;4.970;2024-01-16T00:06:23;15.15;;;2.22;;
54171;SDS011;40076;52.354;4.970;2024-01-16T00:13:10;13.73;;;1.55;;
54171;SDS011;40076;52.354;4.970;2024-01-16T00:16:10;13.13;;;1.73;;
54171;SDS011;40076;52.354;4.970;2024-01-16T00:18:59;10.82;;;1.42;;
54171;SDS011;40076;52.354;4.970;2024-01-16T00:21:34;5.97;;;1.33;;
54171;SDS011;40076;52.354;4.970;2024-01-16T00:24:33;10.55;;;1.25;;
54171;SDS011;40076;52.354;4.970;2024-01-16T00:27:11;12.30;;;1.50;;
54171;SDS011;40076;52.354;4.970;2024-01-16T00:30:19;13.63;;;1.17;;
54171;SDS011;40076;52.354;4.970;2024-01-16T00:33:16;6.57;;;1.05;;
54171;SDS011;40076;52.354;4.970;2024-01-16T00:39:07;9.98;;;1.40;;
54171;SDS011;40076;52.354;4.970;2024-01-16T00:42:01;6.60;;;1.33;;
54171;SDS011;40076;52.354;4.970;2024-01-16T00:48:38;7.82;;;1.85;;
54171;SDS011;40076;52.354;4.970;2024-01-16T00:51:49;13.18;;;1.35;;
54171;SDS011;40076;52.354;4.970;2024-01-16T00:54:25;5.95;;;0.90;;
54171;SDS011;40076;52.354;4.970;2024-01-16T01:01:19;5.00;;;0.85;;
54171;SDS011;40076;52.354;4.970;2024-01-16T01:32:19;9.55;;;0.63;;
54171;SDS011;40076;52.354;4.970;2024-01-16T01:35:24;8.77;;;0.55;;
54171;SDS011;40076;52.354;4.970;2024-01-16T01:42:32;5.35;;;0.65;;
54171;SDS011;40076;52.354;4.970;2024-01-16T01:48:12;9.07;;;0.98;;
54171;SDS011;40076;52.354;4.970;2024-01-16T01:50:52;6.00;;;1.38;;
54171;SDS011;40076;52.354;4.970;2024-01-16T01:56:34;5.40;;;0.98;;
54171;SDS011;40076;52.354;4.970;2024-01-16T01:59:08;8.45;;;1.85;;
54171;SDS011;40076;52.354;4.970;2024-01-16T02:01:57;8.10;;;0.80;;
54171;SDS011;40076;52.354;4.970;2024-01-16T02:05:06;7.65;;;0.82;;
54171;SDS011;40076;52.354;4.970;2024-01-16T02:07:52;4.00;;;0.90;;
54171;SDS011;40076;52.354;4.970;2024-01-16T02:10:36;9.73;;;0.93;;
54171;SDS011;40076;52.354;4.970;2024-01-16T02:13:33;4.80;;;0.80;;
54171;SDS011;40076;52.354;4.970;2024-01-16T02:16:42;4.13;;;0.60;;
54171;SDS011;40076;52.354;4.970;2024-01-16T02:19:54;8.43;;;2.03;;
54171;SDS011;40076;52.354;4.970;2024-01-16T02:22:45;8.43;;;1.00;;
54171;SDS011;40076;52.354;4.970;2024-01-16T02:26:28;5.15;;;0.60;;
54171;SDS011;40076;52.354;4.970;2024-01-16T02:29:08;6.82;;;1.05;;
54171;SDS011;40076;52.354;4.970;2024-01-16T02:31:56;11.90;;;1.08;;
54171;SDS011;40076;52.354;4.970;2024-01-16T02:34:38;4.65;;;0.80;;
54171;SDS011;40076;52.354;4.970;2024-01-16T02:44:08;7.28;;;0.90;;
54171;SDS011;40076;52.354;4.970;2024-01-16T02:46:41;9.05;;;1.10;;
54171;SDS011;40076;52.354;4.970;2024-01-16T02:49:32;9.25;;;1.00;;
54171;SDS011;40076;52.354;4.970;2024-01-16T02:52:03;8.50;;;1.00;;
54171;SDS011;40076;52.354;4.970;2024-01-16T02:54:34;9.45;;;0.90;;
54171;SDS011;40076;52.354;4.970;2024-01-16T02:57:34;7.32;;;1.30;;
54171;SDS011;40076;52.354;4.970;2024-01-16T03:00:45;7.93;;;1.08;;
54171;SDS011;40076;52.354;4.970;2024-01-16T03:13:40;7.68;;;1.17;;
54171;SDS011;40076;52.354;4.970;2024-01-16T03:16:39;7.13;;;1.10;;
54171;SDS011;40076;52.354;4.970;2024-01-16T03:19:23;7.60;;;1.13;;
54171;SDS011;40076;52.354;4.970;2024-01-16T03:21:59;7.68;;;1.88;;
54171;SDS011;40076;52.354;4.970;2024-01-16T03:24:37;6.78;;;0.95;;
54171;SDS011;40076;52.354;4.970;2024-01-16T03:27:20;9.43;;;1.00;;
54171;SDS011;40076;52.354;4.970;2024-01-16T03:29:53;11.20;;;1.08;;
54171;SDS011;40076;52.354;4.970;2024-01-16T03:32:59;6.25;;;1.08;;
54171;SDS011;40076;52.354;4.970;2024-01-16T03:35:55;9.48;;;0.95;;
54171;SDS011;40076;52.354;4.970;2024-01-16T03:38:46;11.50;;;1.33;;
54171;SDS011;40076;52.354;4.970;2024-01-16T03:41:40;11.20;;;1.55;;
54171;SDS011;40076;52.354;4.970;2024-01-16T03:44:08;12.60;;;1.50;;
54171;SDS011;40076;52.354;4.970;2024-01-16T03:49:44;7.25;;;1.30;;
54171;SDS011;40076;52.354;4.970;2024-01-16T03:52:23;12.00;;;1.65;;
54171;SDS011;40076;52.354;4.970;2024-01-16T03:55:06;13.85;;;1.17;;
54171;SDS011;40076;52.354;4.970;2024-01-16T03:57:42;12.60;;;2.35;;
54171;SDS011;40076;52.354;4.970;2024-01-16T04:00:16;8.38;;;1.67;;
54171;SDS011;40076;52.354;4.970;2024-01-16T04:03:02;13.60;;;1.40;;
54171;SDS011;40076;52.354;4.970;2024-01-16T04:11:53;5.20;;;1.13;;
54171;SDS011;40076;52.354;4.970;2024-01-16T04:14:45;6.68;;;1.35;;
54171;SDS011;40076;52.354;4.970;2024-01-16T04:17:29;4.72;;;0.70;;
54171;SDS011;40076;52.354;4.970;2024-01-16T04:20:25;7.03;;;1.10;;
54171;SDS011;40076;52.354;4.970;2024-01-16T04:33:11;10.38;;;1.10;;
54171;SDS011;40076;52.354;4.970;2024-01-16T04:35:58;8.35;;;1.20;;
54171;SDS011;40076;52.354;4.970;2024-01-16T04:41:54;6.97;;;0.60;;
54171;SDS011;40076;52.354;4.970;2024-01-16T04:44:45;4.80;;;1.20;;
54171;SDS011;40076;52.354;4.970;2024-01-16T04:47:21;8.73;;;1.50;;
54171;SDS011;40076;52.354;4.970;2024-01-16T04:49:49;2.90;;;0.65;;
54171;SDS011;40076;52.354;4.970;2024-01-16T04:52:18;8.40;;;1.20;;
54171;SDS011;40076;52.354;4.970;2024-01-16T04:54:56;6.10;;;1.13;;
54171;SDS011;40076;52.354;4.970;2024-01-16T04:57:32;6.78;;;0.85;;
54171;SDS011;40076;52.354;4.970;2024-01-16T05:00:01;5.38;;;1.10;;
54171;SDS011;40076;52.354;4.970;2024-01-16T05:02:36;10.52;;;1.30;;
54171;SDS011;40076;52.354;4.970;2024-01-16T05:05:12;6.07;;;1.05;;
54171;SDS011;40076;52.354;4.970;2024-01-16T05:07:51;6.13;;;1.27;;
54171;SDS011;40076;52.354;4.970;2024-01-16T05:10:45;10.43;;;1.48;;
54171;SDS011;40076;52.354;4.970;2024-01-16T05:13:20;8.07;;;1.05;;
54171;SDS011;40076;52.354;4.970;2024-01-16T05:15:50;8.80;;;1.20;;
54171;SDS011;40076;52.354;4.970;2024-01-16T05:18:33;8.25;;;1.17;;
54171;SDS011;40076;52.354;4.970;2024-01-16T05:21:40;6.03;;;0.93;;
54171;SDS011;40076;52.354;4.970;2024-01-16T05:24:42;12.43;;;1.48;;
54171;SDS011;40076;52.354;4.970;2024-01-16T05:27:23;8.85;;;1.27;;
54171;SDS011;40076;52.354;4.970;2024-01-16T05:30:24;8.90;;;1.20;;
54171;SDS011;40076;52.354;4.970;2024-01-16T05:33:23;9.18;;;0.98;;
54171;SDS011;40076;52.354;4.970;2024-01-16T05:39:34;4.72;;;0.70;;
54171;SDS011;40076;52.354;4.970;2024-01-16T05:42:33;7.00;;;0.82;;
54171;SDS011;40076;52.354;4.970;2024-01-16T05:45:56;4.78;;;0.77;;
54171;SDS011;40076;52.354;4.970;2024-01-16T05:49:11;6.38;;;0.90;;
54171;SDS011;40076;52.354;4.970;2024-01-16T05:54:45;6.05;;;0.73;;
54171;SDS011;40076;52.354;4.970;2024-01-16T06:01:17;9.48;;;1.65;;
54171;SDS011;40076;52.354;4.970;2024-01-16T06:07:11;5.90;;;0.88;;
54171;SDS011;40076;52.354;4.970;2024-01-16T06:09:51;4.53;;;1.00;;
54171;SDS011;40076;52.354;4.970;2024-01-16T06:12:45;6.80;;;1.00;;
54171;SDS011;40076;52.354;4.970;2024-01-16T06:15:24;4.32;;;1.30;;
54171;SDS011;40076;52.354;4.970;2024-01-16T06:21:23;3.90;;;1.30;;
54171;SDS011;40076;52.354;4.970;2024-01-16T06:37:49;5.75;;;1.52;;
54171;SDS011;40076;52.354;4.970;2024-01-16T07:36:55;8.48;;;1.60;;
54171;SDS011;40076;52.354;4.970;2024-01-16T07:39:26;10.10;;;2.10;;
54171;SDS011;40076;52.354;4.970;2024-01-16T07:41:57;22.90;;;3.17;;
54171;SDS011;40076;52.354;4.970;2024-01-16T07:44:34;8.00;;;1.88;;
54171;SDS011;40076;52.354;4.970;2024-01-16T07:47:01;9.27;;;1.50;;
54171;SDS011;40076;52.354;4.970;2024-01-16T07:49:26;10.80;;;1.92;;
54171;SDS011;40076;52.354;4.970;2024-01-16T07:51:54;7.10;;;1.85;;
54171;SDS011;40076;52.354;4.970;2024-01-16T07:54:22;9.65;;;2.25;;
54171;SDS011;40076;52.354;4.970;2024-01-16T07:56:58;11.38;;;2.65;;
54171;SDS011;40076;52.354;4.970;2024-01-16T07:59:24;12.38;;;3.50;;
54171;SDS011;40076;52.354;4.970;2024-01-16T08:01:51;13.85;;;4.07;;
54171;SDS011;40076;52.354;4.970;2024-01-16T08:04:17;14.50;;;4.30;;
54171;SDS011;40076;52.354;4.970;2024-01-16T08:06:42;9.10;;;3.95;;
54171;SDS011;40076;52.354;4.970;2024-01-16T08:09:08;11.95;;;4.20;;
54171;SDS011;40076;52.354;4.970;2024-01-16T08:11:36;11.55;;;4.65;;
54171;SDS011;40076;52.354;4.970;2024-01-16T08:14:02;17.88;;;5.10;;
54171;SDS011;40076;52.354;4.970;2024-01-16T08:16:28;9.63;;;4.18;;
54171;SDS011;40076;52.354;4.970;2024-01-16T08:18:53;10.50;;;4.63;;
54171;SDS011;40076;52.354;4.970;2024-01-16T08:21:19;11.27;;;4.63;;
54171;SDS011;40076;52.354;4.970;2024-01-16T08:23:46;15.27;;;5.32;;
54171;SDS011;40076;52.354;4.970;2024-01-16T08:26:12;17.67;;;4.90;;
54171;SDS011;40076;52.354;4.970;2024-01-16T08:28:37;16.48;;;5.72;;
54171;SDS011;40076;52.354;4.970;2024-01-16T08:31:03;13.25;;;5.45;;
54171;SDS011;40076;52.354;4.970;2024-01-16T08:33:29;14.40;;;6.53;;
54171;SDS011;40076;52.354;4.970;2024-01-16T08:35:54;15.25;;;6.85;;
54171;SDS011;40076;52.354;4.970;2024-01-16T08:38:20;18.80;;;6.50;;
54171;SDS011;40076;52.354;4.970;2024-01-16T08:40:45;14.50;;;6.50;;
54171;SDS011;40076;52.354;4.970;2024-01-16T08:43:13;15.10;;;7.18;;
54171;SDS011;40076;52.354;4.970;2024-01-16T08:45:43;17.00;;;7.20;;
54171;SDS011;40076;52.354;4.970;2024-01-16T08:48:09;19.77;;;6.85;;
54171;SDS011;40076;52.354;4.970;2024-01-16T08:50:34;16.02;;;7.28;;
54171;SDS011;40076;52.354;4.970;2024-01-16T08:53:00;15.73;;;6.90;;
54171;SDS011;40076;52.354;4.970;2024-01-16T08:55:25;16.50;;;6.53;;
54171;SDS011;40076;52.354;4.970;2024-01-16T08:57:51;20.73;;;8.35;;
54171;SDS011;40076;52.354;4.970;2024-01-16T09:00:24;22.73;;;7.38;;
54171;SDS011;40076;52.354;4.970;2024-01-16T09:02:52;15.65;;;6.60;;
54171;SDS011;40076;52.354;4.970;2024-01-16T09:05:17;14.52;;;6.18;;
54171;SDS011;40076;52.354;4.970;2024-01-16T09:07:42;21.73;;;8.10;;
54171;SDS011;40076;52.354;4.970;2024-01-16T09:10:08;12.77;;;5.97;;
54171;SDS011;40076;52.354;4.970;2024-01-16T09:12:34;13.82;;;6.20;;
54171;SDS011;40076;52.354;4.970;2024-01-16T09:14:59;12.60;;;5.60;;
54171;SDS011;40076;52.354;4.970;2024-01-16T09:17:24;13.60;;;6.35;;
54171;SDS011;40076;52.354;4.970;2024-01-16T09:19:53;12.23;;;6.35;;
54171;SDS011;40076;52.354;4.970;2024-01-16T09:22:18;13.75;;;6.00;;
54171;SDS011;40076;52.354;4.970;2024-01-16T09:24:44;16.23;;;6.00;;
54171;SDS011;40076;52.354;4.970;2024-01-16T09:27:12;15.23;;;6.30;;
54171;SDS011;40076;52.354;4.970;2024-01-16T09:29:39;13.60;;;5.75;;
54171;SDS011;40076;52.354;4.970;2024-01-16T09:32:04;13.35;;;6.90;;
54171;SDS011;40076;52.354;4.970;2024-01-16T09:34:33;15.38;;;6.57;;
54171;SDS011;40076;52.354;4.970;2024-01-16T09:36:58;15.25;;;6.57;;
54171;SDS011;40076;52.354;4.970;2024-01-16T09:39:29;16.95;;;6.18;;
54171;SDS011;40076;52.354;4.970;2024-01-16T09:41:59;17.45;;;6.15;;
54171;SDS011;40076;52.354;4.970;2024-01-16T09:44:37;15.35;;;5.03;;
54171;SDS011;40076;52.354;4.970;2024-01-16T09:47:02;13.13;;;6.22;;
54171;SDS011;40076;52.354;4.970;2024-01-16T09:49:30;17.98;;;5.72;;
54171;SDS011;40076;52.354;4.970;2024-01-16T09:51:55;12.30;;;5.47;;
54171;SDS011;40076;52.354;4.970;2024-01-16T09:54:26;13.85;;;5.18;;
54171;SDS011;40076;52.354;4.970;2024-01-16T09:56:56;16.02;;;5.15;;
54171;SDS011;40076;52.354;4.970;2024-01-16T09:59:23;13.32;;;4.93;;
54171;SDS011;40076;52.354;4.970;2024-01-16T10:01:53;13.55;;;4.80;;
54171;SDS011;40076;52.354;4.970;2024-01-16T10:04:44;11.68;;;4.47;;
54171;SDS011;40076;52.354;4.970;2024-01-16T10:07:11;12.90;;;3.92;;
54171;SDS011;40076;52.354;4.970;2024-01-16T10:13:06;9.93;;;3.40;;
54171;SDS011;40076;52.354;4.970;2024-01-16T10:15:49;9.13;;;3.17;;
54171;SDS011;40076;52.354;4.970;2024-01-16T10:18:42;11.27;;;3.17;;
54171;SDS011;40076;52.354;4.970;2024-01-16T10:21:19;9.95;;;2.92;;
54171;SDS011;40076;52.354;4.970;2024-01-16T10:23:50;17.90;;;4.00;;
54171;SDS011;40076;52.354;4.970;2024-01-16T10:26:21;15.68;;;4.45;;
54171;SDS011;40076;52.354;4.970;2024-01-16T10:28:46;9.38;;;3.17;;
54171;SDS011;40076;52.354;4.970;2024-01-16T10:31:13;11.30;;;2.85;;
54171;SDS011;40076;52.354;4.970;2024-01-16T10:33:41;7.80;;;2.75;;
54171;SDS011;40076;52.354;4.970;2024-01-16T10:36:28;7.82;;;2.80;;
54171;SDS011;40076;52.354;4.970;2024-01-16T10:39:02;7.30;;;2.83;;
54171;SDS011;40076;52.354;4.970;2024-01-16T10:41:28;12.43;;;3.20;;
54171;SDS011;40076;52.354;4.970;2024-01-16T10:44:03;15.88;;;3.45;;
54171;SDS011;40076;52.354;4.970;2024-01-16T10:46:33;8.25;;;3.13;;
54171;SDS011;40076;52.354;4.970;2024-01-16T10:49:04;10.65;;;2.90;;
54171;SDS011;40076;52.354;4.970;2024-01-16T10:51:30;20.83;;;10.35;;
54171;SDS011;40076;52.354;4.970;2024-01-16T10:54:02;8.57;;;3.60;;
54171;SDS011;40076;52.354;4.970;2024-01-16T10:56:33;12.57;;;4.35;;
54171;SDS011;40076;52.354;4.970;2024-01-16T11:02:03;10.38;;;3.33;;
54171;SDS011;40076;52.354;4.970;2024-01-16T11:04:37;6.40;;;1.80;;
54171;SDS011;40076;52.354;4.970;2024-01-16T11:07:03;11.95;;;2.40;;
54171;SDS011;40076;52.354;4.970;2024-01-16T11:09:31;8.98;;;2.47;;
54171;SDS011;40076;52.354;4.970;2024-01-16T11:11:57;8.65;;;1.58;;
54171;SDS011;40076;52.354;4.970;2024-01-16T11:14:23;9.68;;;1.77;;
54171;SDS011;40076;52.354;4.970;2024-01-16T11:16:53;6.30;;;1.30;;
54171;SDS011;40076;52.354;4.970;2024-01-16T11:19:29;6.65;;;1.30;;
54171;SDS011;40076;52.354;4.970;2024-01-16T11:21:57;7.93;;;1.45;;
54171;SDS011;40076;52.354;4.970;2024-01-16T11:24:33;14.90;;;1.13;;
54171;SDS011;40076;52.354;4.970;2024-01-16T11:48:26;4.82;;;1.20;;
54171;SDS011;40076;52.354;4.970;2024-01-16T11:50:52;11.80;;;4.55;;
54171;SDS011;40076;52.354;4.970;2024-01-16T12:02:18;5.88;;;1.85;;
54171;SDS011;40076;52.354;4.970;2024-01-16T12:08:21;9.80;;;1.10;;
54171;SDS011;40076;52.354;4.970;2024-01-16T12:11:02;7.32;;;1.08;;
54171;SDS011;40076;52.354;4.970;2024-01-16T12:13:28;6.30;;;0.75;;
54171;SDS011;40076;52.354;4.970;2024-01-16T12:16:06;4.20;;;0.73;;
54171;SDS011;40076;52.354;4.970;2024-01-16T12:21:56;8.68;;;0.77;;
54171;SDS011;40076;52.354;4.970;2024-01-16T12:24:32;8.02;;;1.00;;
54171;SDS011;40076;52.354;4.970;2024-01-16T12:27:10;10.02;;;1.38;;
54171;SDS011;40076;52.354;4.970;2024-01-16T12:29:35;5.28;;;0.90;;
54171;SDS011;40076;52.354;4.970;2024-01-16T12:32:07;5.85;;;1.20;;
54171;SDS011;40076;52.354;4.970;2024-01-16T12:34:45;6.75;;;0.90;;
54171;SDS011;40076;52.354;4.970;2024-01-16T12:37:12;8.60;;;1.00;;
54171;SDS011;40076;52.354;4.970;2024-01-16T12:40:13;6.70;;;0.80;;
54171;SDS011;40076;52.354;4.970;2024-01-16T12:42:44;7.47;;;0.70;;
54171;SDS011;40076;52.354;4.970;2024-01-16T12:45:22;4.65;;;0.88;;
54171;SDS011;40076;52.354;4.970;2024-01-16T12:48:30;3.72;;;0.90;;
54171;SDS011;40076;52.354;4.970;2024-01-16T12:51:02;5.50;;;1.08;;
54171;SDS011;40076;52.354;4.970;2024-01-16T12:53:34;8.00;;;1.08;;
54171;SDS011;40076;52.354;4.970;2024-01-16T12:56:07;5.10;;;0.70;;
54171;SDS011;40076;52.354;4.970;2024-01-16T12:58:42;6.55;;;0.90;;
54171;SDS011;40076;52.354;4.970;2024-01-16T13:04:11;5.45;;;0.90;;
54171;SDS011;40076;52.354;4.970;2024-01-16T13:06:48;3.80;;;0.80;;
54171;SDS011;40076;52.354;4.970;2024-01-16T13:09:28;4.72;;;0.52;;
54171;SDS011;40076;52.354;4.970;2024-01-16T13:11:56;3.00;;;0.50;;
54171;SDS011;40076;52.354;4.970;2024-01-16T13:14:27;20.50;;;10.27;;
54171;SDS011;40076;52.354;4.970;2024-01-16T13:16:56;8.80;;;4.10;;
54171;SDS011;40076;52.354;4.970;2024-01-16T13:22:13;13.95;;;5.53;;
54171;SDS011;40076;52.354;4.970;2024-01-16T13:24:38;4.00;;;0.90;;
54171;SDS011;40076;52.354;4.970;2024-01-16T13:27:04;3.53;;;0.60;;
54171;SDS011;40076;52.354;4.970;2024-01-16T13:29:31;8.18;;;0.80;;
54171;SDS011;40076;52.354;4.970;2024-01-16T13:32:03;5.38;;;0.73;;
54171;SDS011;40076;52.354;4.970;2024-01-16T13:34:31;5.55;;;0.90;;
54171;SDS011;40076;52.354;4.970;2024-01-16T13:37:19;4.20;;;0.60;;
54171;SDS011;40076;52.354;4.970;2024-01-16T13:39:46;3.92;;;0.65;;
54171;SDS011;40076;52.354;4.970;2024-01-16T13:42:15;6.38;;;0.73;;
54171;SDS011;40076;52.354;4.970;2024-01-16T13:44:43;8.13;;;0.98;;
54171;SDS011;40076;52.354;4.970;2024-01-16T13:47:19;5.45;;;0.90;;
54171;SDS011;40076;52.354;4.970;2024-01-16T13:49:45;3.33;;;0.63;;
54171;SDS011;40076;52.354;4.970;2024-01-16T13:52:13;5.78;;;0.98;;
54171;SDS011;40076;52.354;4.970;2024-01-16T13:54:56;6.20;;;2.10;;
54171;SDS011;40076;52.354;4.970;2024-01-16T13:57:27;3.47;;;0.73;;
54171;SDS011;40076;52.354;4.970;2024-01-16T14:00:04;4.60;;;1.38;;
54171;SDS011;40076;52.354;4.970;2024-01-16T14:02:40;5.40;;;0.85;;
54171;SDS011;40076;52.354;4.970;2024-01-16T14:05:09;5.22;;;0.70;;
54171;SDS011;40076;52.354;4.970;2024-01-16T14:07:52;6.32;;;0.70;;
54171;SDS011;40076;52.354;4.970;2024-01-16T14:10:25;4.63;;;0.80;;
54171;SDS011;40076;52.354;4.970;2024-01-16T14:12:54;8.55;;;1.08;;
54171;SDS011;40076;52.354;4.970;2024-01-16T14:15:33;6.75;;;0.88;;
54171;SDS011;40076;52.354;4.970;2024-01-16T14:18:16;6.78;;;0.85;;
54171;SDS011;40076;52.354;4.970;2024-01-16T14:20:42;3.72;;;0.73;;
54171;SDS011;40076;52.354;4.970;2024-01-16T14:23:07;6.03;;;0.90;;
54171;SDS011;40076;52.354;4.970;2024-01-16T14:25:33;11.13;;;1.05;;
54171;SDS011;40076;52.354;4.970;2024-01-16T14:28:02;2.75;;;0.85;;
54171;SDS011;40076;52.354;4.970;2024-01-16T14:30:28;9.93;;;1.45;;
54171;SDS011;40076;52.354;4.970;2024-01-16T14:32:54;7.72;;;0.60;;
54171;SDS011;40076;52.354;4.970;2024-01-16T14:35:23;6.75;;;0.70;;
54171;SDS011;40076;52.354;4.970;2024-01-16T14:37:49;4.63;;;0.70;;
54171;SDS011;40076;52.354;4.970;2024-01-16T14:40:15;5.95;;;0.68;;
54171;SDS011;40076;52.354;4.970;2024-01-16T14:42:50;4.43;;;1.02;;
54171;SDS011;40076;52.354;4.970;2024-01-16T14:45:23;6.47;;;1.90;;
54171;SDS011;40076;52.354;4.970;2024-01-16T14:47:50;7.28;;;1.20;;
54171;SDS011;40076;52.354;4.970;2024-01-16T14:50:23;6.50;;;0.73;;
54171;SDS011;40076;52.354;4.970;2024-01-16T14:52:49;6.70;;;1.88;;
54171;SDS011;40076;52.354;4.970;2024-01-16T14:55:19;10.40;;;5.80;;
54171;SDS011;40076;52.354;4.970;2024-01-16T15:00:54;4.72;;;1.00;;
54171;SDS011;40076;52.354;4.970;2024-01-16T15:06:44;14.85;;;5.93;;
54171;SDS011;40076;52.354;4.970;2024-01-16T15:09:25;79.45;;;39.97;;
54171;SDS011;40076;52.354;4.970;2024-01-16T15:12:06;30.88;;;17.80;;
54171;SDS011;40076;52.354;4.970;2024-01-16T15:14:35;14.23;;;5.90;;
54171;SDS011;40076;52.354;4.970;2024-01-16T15:17:12;10.98;;;3.78;;
54171;SDS011;40076;52.354;4.970;2024-01-16T15:19:37;12.77;;;4.70;;
54171;SDS011;40076;52.354;4.970;2024-01-16T15:22:03;7.95;;;2.22;;
54171;SDS011;40076;52.354;4.970;2024-01-16T15:24:30;8.85;;;1.73;;
54171;SDS011;40076;52.354;4.970;2024-01-16T15:26:58;22.90;;;13.25;;
54171;SDS011;40076;52.354;4.970;2024-01-16T15:29:28;13.65;;;7.95;;
54171;SDS011;40076;52.354;4.970;2024-01-16T15:31:54;7.35;;;1.83;;
54171;SDS011;40076;52.354;4.970;2024-01-16T15:34:21;7.78;;;2.65;;
54171;SDS011;40076;52.354;4.970;2024-01-16T15:36:49;15.10;;;7.95;;
54171;SDS011;40076;52.354;4.970;2024-01-16T15:39:15;9.35;;;3.03;;
54171;SDS011;40076;52.354;4.970;2024-01-16T15:41:44;18.20;;;8.45;;
54171;SDS011;40076;52.354;4.970;2024-01-16T15:44:10;22.40;;;10.13;;
54171;SDS011;40076;52.354;4.970;2024-01-16T15:49:27;9.23;;;3.72;;
54171;SDS011;40076;52.354;4.970;2024-01-16T15:51:56;8.15;;;3.58;;
54171;SDS011;40076;52.354;4.970;2024-01-16T15:54:27;4.22;;;1.00;;
54171;SDS011;40076;52.354;4.970;2024-01-16T15:56:57;2.28;;;0.70;;
54171;SDS011;40076;52.354;4.970;2024-01-16T15:59:23;5.40;;;1.20;;
54171;SDS011;40076;52.354;4.970;2024-01-16T16:01:49;5.35;;;0.98;;
54171;SDS011;40076;52.354;4.970;2024-01-16T16:04:16;5.72;;;1.08;;
54171;SDS011;40076;52.354;4.970;2024-01-16T16:06:44;8.57;;;1.23;;
54171;SDS011;40076;52.354;4.970;2024-01-16T16:09:10;7.65;;;1.40;;
54171;SDS011;40076;52.354;4.970;2024-01-16T16:11:38;7.88;;;1.20;;
54171;SDS011;40076;52.354;4.970;2024-01-16T16:14:09;4.22;;;1.20;;
54171;SDS011;40076;52.354;4.970;2024-01-16T16:16:46;4.57;;;1.23;;
54171;SDS011;40076;52.354;4.970;2024-01-16T16:19:27;9.65;;;1.52;;
54171;SDS011;40076;52.354;4.970;2024-01-16T16:21:57;3.58;;;1.00;;
54171;SDS011;40076;52.354;4.970;2024-01-16T16:24:28;4.80;;;1.20;;
54171;SDS011;40076;52.354;4.970;2024-01-16T16:29:55;12.82;;;3.67;;
54171;SDS011;40076;52.354;4.970;2024-01-16T16:32:22;10.77;;;4.00;;
54171;SDS011;40076;52.354;4.970;2024-01-16T16:34:55;9.30;;;3.65;;
54171;SDS011;40076;52.354;4.970;2024-01-16T16:37:31;10.25;;;4.10;;
54171;SDS011;40076;52.354;4.970;2024-01-16T16:39:58;13.65;;;6.65;;
54171;SDS011;40076;52.354;4.970;2024-01-16T16:42:24;16.42;;;5.40;;
54171;SDS011;40076;52.354;4.970;2024-01-16T16:44:52;15.57;;;9.73;;
54171;SDS011;40076;52.354;4.970;2024-01-16T16:47:18;22.55;;;9.73;;
54171;SDS011;40076;52.354;4.970;2024-01-16T16:49:43;16.08;;;7.82;;
54171;SDS011;40076;52.354;4.970;2024-01-16T16:52:09;10.48;;;5.88;;
54171;SDS011;40076;52.354;4.970;2024-01-16T16:54:40;14.75;;;7.38;;
54171;SDS011;40076;52.354;4.970;2024-01-16T16:59:36;9.75;;;4.75;;
54171;SDS011;40076;52.354;4.970;2024-01-16T17:02:03;10.13;;;4.20;;
54171;SDS011;40076;52.354;4.970;2024-01-16T17:04:29;7.57;;;3.10;;
54171;SDS011;40076;52.354;4.970;2024-01-16T17:06:59;9.15;;;2.83;;
54171;SDS011;40076;52.354;4.970;2024-01-16T17:09:27;8.40;;;2.95;;
54171;SDS011;40076;52.354;4.970;2024-01-16T17:12:03;12.00;;;7.20;;
54171;SDS011;40076;52.354;4.970;2024-01-16T17:14:29;7.57;;;3.75;;
54171;SDS011;40076;52.354;4.970;2024-01-16T17:16:54;5.47;;;2.17;;
54171;SDS011;40076;52.354;4.970;2024-01-16T17:19:20;7.07;;;2.33;;
54171;SDS011;40076;52.354;4.970;2024-01-16T17:21:46;8.32;;;3.67;;
54171;SDS011;40076;52.354;4.970;2024-01-16T17:24:16;7.18;;;2.83;;
54171;SDS011;40076;52.354;4.970;2024-01-16T17:26:44;6.97;;;3.72;;
54171;SDS011;40076;52.354;4.970;2024-01-16T17:29:15;10.98;;;3.38;;
54171;SDS011;40076;52.354;4.970;2024-01-16T17:31:43;6.57;;;2.60;;
54171;SDS011;40076;52.354;4.970;2024-01-16T17:34:19;7.65;;;2.40;;
54171;SDS011;40076;52.354;4.970;2024-01-16T17:37:01;11.00;;;2.70;;
54171;SDS011;40076;52.354;4.970;2024-01-16T17:39:48;9.60;;;2.85;;
54171;SDS011;40076;52.354;4.970;2024-01-16T18:13:01;20.92;;;10.15;;
54171;SDS011;40076;52.354;4.970;2024-01-16T18:15:45;16.75;;;7.82;;
54171;SDS011;40076;52.354;4.970;2024-01-16T18:25:42;22.33;;;9.30;;
54171;SDS011;40076;52.354;4.970;2024-01-16T18:28:15;14.02;;;6.07;;
54171;SDS011;40076;52.354;4.970;2024-01-16T18:31:01;14.75;;;6.03;;
54171;SDS011;40076;52.354;4.970;2024-01-16T18:33:30;14.68;;;7.22;;
54171;SDS011;40076;52.354;4.970;2024-01-16T19:48:46;9.77;;;4.35;;
54171;SDS011;40076;52.354;4.970;2024-01-16T19:51:24;10.27;;;4.40;;
54171;SDS011;40076;52.354;4.970;2024-01-16T20:04:14;12.35;;;4.35;;
54171;SDS011;40076;52.354;4.970;2024-01-16T20:06:43;10.68;;;4.05;;
54171;SDS011;40076;52.354;4.970;2024-01-16T20:09:22;11.50;;;4.20;;
54171;SDS011;40076;52.354;4.970;2024-01-16T20:12:01;12.05;;;4.50;;
54171;SDS011;40076;52.354;4.970;2024-01-16T20:14:55;10.35;;;4.00;;
54171;SDS011;40076;52.354;4.970;2024-01-16T20:17:54;10.75;;;4.35;;
54171;SDS011;40076;52.354;4.970;2024-01-16T20:20:37;11.55;;;3.90;;
54171;SDS011;40076;52.354;4.970;2024-01-16T20:23:13;12.27;;;3.83;;
54171;SDS011;40076;52.354;4.970;2024-01-16T20:25:42;11.13;;;4.20;;
54171;SDS011;40076;52.354;4.970;2024-01-16T20:31:36;13.18;;;4.28;;
54171;SDS011;40076;52.354;4.970;2024-01-16T20:34:03;11.60;;;3.97;;
54171;SDS011;40076;52.354;4.970;2024-01-16T20:36:29;9.05;;;4.10;;
54171;SDS011;40076;52.354;4.970;2024-01-16T20:43:10;10.02;;;4.63;;
54171;SDS011;40076;52.354;4.970;2024-01-16T20:45:51;10.10;;;4.05;;
54171;SDS011;40076;52.354;4.970;2024-01-16T20:48:26;9.13;;;4.00;;
54171;SDS011;40076;52.354;4.970;2024-01-16T20:50:54;9.00;;;3.75;;
54171;SDS011;40076;52.354;4.970;2024-01-16T20:53:25;9.13;;;4.30;;
54171;SDS011;40076;52.354;4.970;2024-01-16T20:56:10;9.02;;;3.90;;
54171;SDS011;40076;52.354;4.970;2024-01-16T20:58:38;8.35;;;3.75;;
54171;SDS011;40076;52.354;4.970;2024-01-16T21:01:04;8.52;;;3.58;;
54171;SDS011;40076;52.354;4.970;2024-01-16T21:03:30;10.60;;;3.78;;
54171;SDS011;40076;52.354;4.970;2024-01-16T21:05:58;10.70;;;3.80;;
54171;SDS011;40076;52.354;4.970;2024-01-16T21:11:19;8.57;;;3.80;;
54171;SDS011;40076;52.354;4.970;2024-01-16T21:13:45;10.48;;;3.90;;
54171;SDS011;40076;52.354;4.970;2024-01-16T21:16:11;9.32;;;3.88;;
54171;SDS011;40076;52.354;4.970;2024-01-16T21:18:39;11.45;;;4.20;;
54171;SDS011;40076;52.354;4.970;2024-01-16T21:21:08;8.45;;;3.75;;
54171;SDS011;40076;52.354;4.970;2024-01-16T21:23:36;9.10;;;3.83;;
54171;SDS011;40076;52.354;4.970;2024-01-16T21:26:14;8.73;;;3.60;;
54171;SDS011;40076;52.354;4.970;2024-01-16T21:28:50;8.25;;;4.13;;
54171;SDS011;40076;52.354;4.970;2024-01-16T21:31:21;12.18;;;4.35;;
54171;SDS011;40076;52.354;4.970;2024-01-16T21:34:08;7.60;;;3.63;;
54171;SDS011;40076;52.354;4.970;2024-01-16T21:36:40;11.35;;;3.05;;
54171;SDS011;40076;52.354;4.970;2024-01-16T21:39:25;10.95;;;3.92;;
54171;SDS011;40076;52.354;4.970;2024-01-16T21:42:01;12.65;;;4.85;;
54171;SDS011;40076;52.354;4.970;2024-01-16T21:44:35;8.65;;;3.83;;
54171;SDS011;40076;52.354;4.970;2024-01-16T21:48:05;7.85;;;3.58;;
54171;SDS011;40076;52.354;4.970;2024-01-16T21:51:07;14.52;;;4.72;;